createdAt,value
2019-02-25T00:00:54.971Z,7.70
2019-02-25T00:03:24.335Z,7.13
2019-02-25T00:05:53.666Z,7.73
2019-02-25T00:08:23.035Z,7.40
2019-02-25T00:10:52.729Z,6.67
2019-02-25T00:13:22.402Z,6.63
2019-02-25T00:15:52.139Z,7.17
2019-02-25T00:18:21.655Z,8.20
2019-02-25T00:20:51.127Z,7.33
2019-02-25T00:23:20.391Z,8.00
2019-02-25T00:25:49.691Z,7.83
2019-02-25T00:28:19.044Z,7.93
2019-02-25T00:30:48.999Z,9.10
2019-02-25T00:33:18.658Z,7.80
2019-02-25T00:35:49.038Z,8.63
2019-02-25T00:38:19.176Z,9.07
2019-02-25T00:40:48.607Z,11.47
2019-02-25T00:43:18.067Z,11.50
2019-02-25T00:45:47.488Z,9.13
2019-02-25T00:48:16.671Z,9.47
2019-02-25T00:50:46.612Z,9.73
2019-02-25T00:53:16.025Z,7.03
2019-02-25T00:55:45.294Z,8.93
2019-02-25T00:58:15.222Z,6.80
2019-02-25T01:00:44.525Z,10.60
2019-02-25T01:03:13.731Z,16.87
2019-02-25T01:05:44.070Z,13.27
2019-02-25T01:08:13.387Z,17.83
2019-02-25T01:10:43.542Z,17.83
2019-02-25T01:13:12.929Z,14.63
2019-02-25T01:15:42.179Z,9.87
2019-02-25T01:18:11.594Z,11.37
2019-02-25T01:20:41.486Z,10.93
2019-02-25T01:23:12.010Z,13.23
2019-02-25T01:25:41.524Z,10.70
2019-02-25T01:28:10.959Z,12.67
2019-02-25T01:30:40.729Z,9.77
2019-02-25T01:33:09.919Z,9.97
2019-02-25T01:35:39.261Z,10.07
2019-02-25T01:38:08.465Z,9.13
2019-02-25T01:40:38.095Z,8.77
2019-02-25T01:43:07.989Z,7.40
2019-02-25T01:45:37.239Z,9.37
2019-02-25T01:48:06.475Z,11.17
2019-02-25T01:50:35.906Z,8.00
2019-02-25T01:53:05.150Z,7.43
2019-02-25T01:55:34.716Z,9.67
2019-02-25T01:58:04.041Z,7.30
2019-02-25T02:00:34.111Z,6.97
2019-02-25T02:03:03.385Z,7.30
2019-02-25T02:05:32.567Z,5.10
2019-02-25T02:08:01.833Z,7.00
2019-02-25T02:10:30.986Z,5.33
2019-02-25T02:13:00.520Z,5.03
2019-02-25T02:15:29.745Z,6.77
2019-02-25T02:17:59.029Z,7.00
2019-02-25T02:20:28.276Z,5.57
2019-02-25T02:22:57.585Z,6.43
2019-02-25T02:25:26.758Z,5.27
2019-02-25T02:27:55.967Z,14.57
2019-02-25T02:30:25.202Z,14.43
2019-02-25T02:32:54.380Z,44.33
2019-02-25T02:35:23.688Z,20.73
2019-02-25T02:37:53.181Z,11.13
2019-02-25T02:40:22.360Z,14.97
2019-02-25T02:42:53.747Z,13.07
2019-02-25T02:45:49.529Z,7.70
2019-02-25T02:48:31.675Z,6.93
2019-02-25T02:51:01.006Z,5.43
2019-02-25T02:53:30.317Z,6.80
2019-02-25T02:55:59.562Z,6.80
2019-02-25T02:58:28.833Z,7.20
2019-02-25T03:00:58.134Z,7.20
2019-02-25T03:03:27.409Z,6.73
2019-02-25T03:05:56.566Z,8.93
2019-02-25T03:08:25.793Z,8.10
2019-02-25T03:10:54.963Z,7.50
2019-02-25T03:13:24.241Z,8.20
2019-02-25T03:15:53.429Z,8.37
2019-02-25T03:18:22.677Z,7.07
2019-02-25T03:20:51.952Z,8.20
2019-02-25T03:23:21.436Z,7.23
2019-02-25T03:25:50.956Z,7.37
2019-02-25T03:28:20.221Z,8.43
2019-02-25T03:30:49.466Z,7.33
2019-02-25T03:33:18.823Z,8.13
2019-02-25T03:35:48.073Z,8.87
2019-02-25T03:38:17.559Z,7.33
2019-02-25T03:40:47.069Z,6.87
2019-02-25T03:43:16.310Z,9.63
2019-02-25T03:45:45.564Z,10.27
2019-02-25T03:48:14.715Z,7.37
2019-02-25T03:50:43.997Z,7.97
2019-02-25T03:53:13.671Z,7.87
2019-02-25T03:55:42.898Z,8.47
2019-02-25T03:58:12.128Z,8.50
2019-02-25T04:00:41.384Z,7.83
2019-02-25T04:03:10.821Z,9.53
2019-02-25T04:05:40.636Z,8.40
2019-02-25T04:08:10.263Z,8.90
2019-02-25T04:10:39.712Z,8.20
2019-02-25T04:13:09.447Z,9.57
2019-02-25T04:15:41.857Z,6.87
2019-02-25T04:18:11.388Z,8.27
2019-02-25T04:20:40.957Z,8.20
2019-02-25T04:23:10.473Z,6.57
2019-02-25T04:25:39.628Z,8.03
2019-02-25T04:28:08.852Z,8.13
2019-02-25T04:30:38.489Z,11.23
2019-02-25T04:33:07.838Z,7.03
2019-02-25T04:35:37.069Z,9.47
2019-02-25T04:38:06.549Z,19.90
2019-02-25T04:40:35.777Z,25.50
2019-02-25T04:43:05.034Z,15.87
2019-02-25T04:45:34.359Z,14.57
2019-02-25T04:48:03.540Z,17.83
2019-02-25T04:50:32.704Z,13.23
2019-02-25T04:53:02.051Z,20.73
2019-02-25T04:55:31.718Z,10.10
2019-02-25T04:58:01.492Z,9.83
2019-02-25T05:00:31.021Z,10.53
2019-02-25T05:03:00.312Z,8.90
2019-02-25T05:05:29.547Z,7.80
2019-02-25T05:07:59.093Z,8.43
2019-02-25T05:10:28.231Z,8.70
2019-02-25T05:13:01.341Z,11.20
2019-02-25T05:15:30.828Z,9.90
2019-02-25T05:18:00.126Z,7.27
2019-02-25T05:20:29.307Z,9.27
2019-02-25T05:22:58.561Z,12.93
2019-02-25T05:25:28.036Z,14.67
2019-02-25T05:27:57.409Z,9.90
2019-02-25T05:30:26.985Z,7.87
2019-02-25T05:32:56.169Z,12.37
2019-02-25T05:35:25.405Z,10.00
2019-02-25T05:37:55.315Z,8.90
2019-02-25T05:40:24.555Z,11.70
2019-02-25T05:42:54.219Z,8.97
2019-02-25T05:45:23.654Z,8.60
2019-02-25T05:47:52.813Z,13.33
2019-02-25T05:50:22.168Z,12.20
2019-02-25T05:52:51.666Z,21.97
2019-02-25T05:55:20.836Z,9.43
2019-02-25T05:57:50.071Z,8.87
2019-02-25T06:00:21.977Z,12.70
2019-02-25T06:02:51.165Z,11.47
2019-02-25T06:05:20.705Z,8.37
2019-02-25T06:07:49.867Z,7.07
2019-02-25T06:10:19.045Z,12.07
2019-02-25T06:12:48.283Z,12.90
2019-02-25T06:15:17.638Z,10.67
2019-02-25T06:17:46.826Z,9.77
2019-02-25T06:20:16.193Z,9.13
2019-02-25T06:22:45.459Z,12.13
2019-02-25T06:25:15.266Z,11.03
2019-02-25T06:27:44.825Z,15.03
2019-02-25T06:30:16.010Z,8.03
2019-02-25T06:32:45.161Z,8.47
2019-02-25T06:35:14.632Z,11.40
2019-02-25T06:37:44.201Z,10.67
2019-02-25T06:40:15.515Z,11.13
2019-02-25T06:42:45.285Z,22.60
2019-02-25T06:45:16.235Z,14.17
2019-02-25T06:47:45.425Z,12.97
2019-02-25T06:50:14.662Z,19.10
2019-02-25T06:52:43.845Z,14.50
2019-02-25T06:55:14.198Z,20.93
2019-02-25T06:57:43.362Z,16.30
2019-02-25T07:00:14.895Z,11.90
2019-02-25T07:02:44.157Z,9.57
2019-02-25T07:05:44.793Z,9.87
2019-02-25T07:08:44.843Z,12.00
2019-02-25T07:11:28.241Z,10.30
2019-02-25T07:14:06.792Z,15.87
2019-02-25T07:17:06.885Z,10.17
2019-02-25T07:19:43.348Z,9.37
2019-02-25T07:22:34.654Z,10.87
2019-02-25T07:25:15.609Z,10.57
2019-02-25T07:28:03.647Z,10.80
2019-02-25T07:31:01.472Z,11.73
2019-02-25T07:33:43.087Z,9.60
2019-02-25T07:36:31.410Z,10.80
2019-02-25T07:39:31.839Z,8.17
2019-02-25T07:42:32.235Z,11.10
2019-02-25T07:45:19.019Z,13.03
2019-02-25T07:47:59.474Z,13.07
2019-02-25T07:50:47.391Z,10.97
2019-02-25T07:53:38.901Z,11.97
2019-02-25T07:56:33.160Z,11.93
2019-02-25T07:59:19.858Z,11.33
2019-02-25T08:01:57.289Z,10.07
2019-02-25T08:04:40.459Z,14.57
2019-02-25T08:07:19.452Z,11.43
2019-02-25T08:10:02.776Z,11.27
2019-02-25T08:12:40.897Z,10.67
2019-02-25T08:15:32.149Z,14.10
2019-02-25T08:18:24.829Z,8.80
2019-02-25T08:21:09.571Z,9.93
2019-02-25T08:23:47.610Z,11.87
2019-02-25T08:26:54.026Z,12.97
2019-02-25T08:29:35.044Z,9.47
2019-02-25T08:32:18.083Z,10.90
2019-02-25T08:35:04.683Z,12.57
2019-02-25T08:38:12.436Z,11.83
2019-02-25T08:41:19.651Z,10.93
2019-02-25T08:44:10.884Z,13.13
2019-02-25T08:46:53.895Z,15.63
2019-02-25T08:49:27.073Z,11.77
2019-02-25T08:51:56.320Z,13.73
2019-02-25T08:54:26.071Z,10.13
2019-02-25T08:56:55.729Z,14.50
2019-02-25T08:59:25.179Z,11.27
2019-02-25T09:01:54.430Z,12.50
2019-02-25T09:04:23.729Z,12.93
2019-02-25T09:06:52.958Z,17.77
2019-02-25T09:09:22.382Z,15.73
2019-02-25T09:11:51.701Z,13.43
2019-02-25T09:14:20.972Z,13.47
2019-02-25T09:16:50.121Z,10.90
2019-02-25T09:19:20.422Z,11.97
2019-02-25T09:21:49.673Z,12.77
2019-02-25T09:24:19.225Z,12.90
2019-02-25T09:26:48.808Z,15.87
2019-02-25T09:29:18.357Z,19.10
2019-02-25T09:31:47.946Z,17.07
2019-02-25T09:34:17.167Z,12.27
2019-02-25T09:36:46.642Z,11.17
2019-02-25T09:39:16.861Z,13.87
2019-02-25T09:41:46.291Z,9.77
2019-02-25T09:44:15.616Z,15.00
2019-02-25T09:46:46.176Z,12.50
2019-02-25T09:49:15.860Z,15.10
2019-02-25T09:51:45.205Z,19.37
2019-02-25T09:54:14.422Z,11.13
2019-02-25T09:56:43.732Z,12.83
2019-02-25T09:59:13.057Z,9.47
2019-02-25T10:01:42.774Z,15.33
2019-02-25T10:04:12.083Z,13.77
2019-02-25T10:06:41.445Z,13.73
2019-02-25T10:09:10.713Z,13.10
2019-02-25T10:11:39.984Z,13.80
2019-02-25T10:14:09.356Z,13.87
2019-02-25T10:16:38.695Z,12.87
2019-02-25T10:19:08.011Z,13.87
2019-02-25T10:21:37.217Z,11.03
2019-02-25T10:24:06.902Z,13.33
2019-02-25T10:26:36.765Z,11.40
2019-02-25T10:29:07.077Z,13.33
2019-02-25T10:31:38.089Z,12.37
2019-02-25T10:34:07.706Z,11.03
2019-02-25T10:36:36.986Z,12.80
2019-02-25T10:39:12.624Z,12.57
2019-02-25T10:41:42.354Z,14.03
2019-02-25T10:44:11.905Z,14.87
2019-02-25T10:46:42.844Z,13.00
2019-02-25T10:49:12.197Z,21.30
2019-02-25T10:51:43.354Z,19.93
2019-02-25T10:54:12.520Z,18.17
2019-02-25T10:56:49.388Z,12.93
2019-02-25T10:59:18.638Z,10.13
2019-02-25T11:01:47.823Z,7.43
2019-02-25T11:04:17.529Z,14.93
2019-02-25T11:06:48.055Z,16.20
2019-02-25T11:09:35.088Z,14.57
2019-02-25T11:12:04.437Z,14.70
2019-02-25T11:14:35.943Z,15.93
2019-02-25T11:17:05.319Z,14.40
2019-02-25T11:19:34.954Z,18.27
2019-02-25T11:22:05.592Z,12.43
2019-02-25T11:24:35.569Z,17.03
2019-02-25T11:27:05.171Z,13.10
2019-02-25T11:29:37.851Z,13.53
2019-02-25T11:32:07.083Z,14.30
2019-02-25T11:34:37.691Z,20.33
2019-02-25T11:37:07.590Z,16.67
2019-02-25T11:39:37.302Z,13.03
2019-02-25T11:42:08.035Z,10.07
2019-02-25T11:44:37.595Z,8.40
2019-02-25T11:47:06.792Z,9.27
2019-02-25T11:49:36.073Z,10.77
2019-02-25T11:52:05.410Z,20.03
2019-02-25T11:54:34.788Z,10.10
2019-02-25T11:57:04.034Z,6.03
2019-02-25T11:59:33.259Z,30.90
2019-02-25T12:02:02.454Z,8.90
2019-02-25T12:04:31.653Z,7.17
2019-02-25T12:07:01.289Z,5.43
2019-02-25T12:09:30.795Z,8.93
2019-02-25T12:12:00.401Z,6.70
2019-02-25T12:14:30.280Z,9.13
2019-02-25T12:16:59.525Z,7.33
2019-02-25T12:19:28.729Z,6.77
2019-02-25T12:21:57.974Z,7.87
2019-02-25T12:24:27.208Z,5.90
2019-02-25T12:26:56.519Z,9.10
2019-02-25T12:29:25.874Z,9.18
2019-02-25T12:31:55.176Z,20.92
2019-02-25T12:34:24.636Z,12.47
2019-02-25T12:36:55.813Z,12.33
2019-02-25T12:39:27.124Z,10.30
2019-02-25T12:41:57.559Z,11.50
2019-02-25T12:44:27.000Z,8.78
2019-02-25T12:46:57.138Z,9.03
2019-02-25T12:49:26.458Z,7.67
2019-02-25T12:51:55.854Z,7.97
2019-02-25T12:54:25.126Z,6.78
2019-02-25T12:56:54.513Z,19.98
2019-02-25T12:59:24.084Z,11.75
2019-02-25T13:01:53.625Z,6.42
2019-02-25T13:04:23.321Z,8.38
2019-02-25T13:06:52.822Z,7.60
2019-02-25T13:09:22.173Z,11.55
2019-02-25T13:11:51.614Z,6.65
2019-02-25T13:14:20.791Z,7.70
2019-02-25T13:16:50.243Z,12.23
2019-02-25T13:19:19.698Z,13.88
2019-02-25T13:21:49.156Z,9.95
2019-02-25T13:24:18.602Z,9.95
2019-02-25T13:26:48.182Z,8.48
2019-02-25T13:29:17.524Z,6.03
2019-02-25T13:31:46.800Z,8.13
2019-02-25T13:34:16.172Z,10.45
2019-02-25T13:36:45.956Z,16.07
2019-02-25T13:39:15.454Z,30.57
2019-02-25T13:41:45.047Z,15.48
2019-02-25T13:44:14.599Z,9.90
2019-02-25T13:46:43.858Z,5.72
2019-02-25T13:49:13.177Z,11.80
2019-02-25T13:51:42.413Z,7.35
2019-02-25T13:54:11.760Z,12.65
2019-02-25T13:56:41.334Z,15.35
2019-02-25T13:59:11.117Z,18.77
2019-02-25T14:01:40.459Z,23.67
2019-02-25T14:04:10.044Z,8.73
2019-02-25T14:06:39.655Z,9.10
2019-02-25T14:09:10.495Z,12.85
2019-02-25T14:11:40.058Z,12.18
2019-02-25T14:14:09.617Z,18.62
2019-02-25T14:16:39.020Z,17.45
2019-02-25T14:19:08.380Z,26.85
2019-02-25T14:21:37.765Z,14.00
2019-02-25T14:24:07.159Z,9.95
2019-02-25T14:26:37.443Z,11.30
2019-02-25T14:29:07.495Z,18.25
2019-02-25T14:31:37.027Z,13.20
2019-02-25T14:34:06.792Z,22.13
2019-02-25T14:36:36.474Z,43.40
2019-02-25T14:39:27.518Z,94.20
2019-02-25T14:41:57.196Z,22.70
2019-02-25T14:44:30.100Z,16.65
2019-02-25T14:46:58.698Z,9.50
2019-02-25T14:49:30.138Z,9.00
2019-02-25T14:52:00.555Z,8.95
2019-02-25T14:54:32.277Z,9.90
2019-02-25T14:57:01.718Z,8.78
2019-02-25T14:59:31.046Z,8.70
2019-02-25T15:02:02.146Z,8.50
2019-02-25T15:04:32.952Z,6.92
2019-02-25T15:07:04.174Z,7.60
2019-02-25T15:09:35.529Z,7.72
2019-02-25T15:12:06.708Z,9.38
2019-02-25T15:14:37.504Z,9.13
2019-02-25T15:17:10.495Z,6.25
2019-02-25T15:19:40.792Z,5.78
2019-02-25T15:22:11.339Z,10.08
2019-02-25T15:24:43.971Z,10.15
2019-02-25T15:27:12.991Z,12.05
2019-02-25T15:29:44.515Z,10.78
2019-02-25T15:32:13.913Z,10.98
2019-02-25T15:34:43.474Z,10.35
2019-02-25T15:37:13.997Z,8.10
2019-02-25T15:39:43.662Z,41.70
2019-02-25T15:42:14.569Z,22.32
2019-02-25T15:44:44.533Z,24.85
2019-02-25T15:47:16.013Z,19.07
2019-02-25T15:49:45.518Z,13.15
2019-02-25T15:52:16.970Z,11.88
2019-02-25T15:54:46.618Z,19.40
2019-02-25T15:57:16.135Z,18.12
2019-02-25T15:59:45.530Z,20.75
2019-02-25T16:02:15.048Z,14.55
2019-02-25T16:04:44.592Z,26.62
2019-02-25T16:07:13.981Z,30.00
2019-02-25T16:09:43.613Z,23.52
2019-02-25T16:12:13.097Z,17.25
2019-02-25T16:14:44.163Z,12.28
2019-02-25T16:17:13.666Z,15.20
2019-02-25T16:19:47.349Z,25.08
2019-02-25T16:22:14.194Z,22.70
2019-02-25T16:24:43.737Z,26.40
2019-02-25T16:27:13.342Z,9.75
2019-02-25T16:29:42.943Z,8.13
2019-02-25T16:32:12.780Z,7.95
2019-02-25T16:34:42.767Z,10.78
2019-02-25T16:37:12.301Z,11.80
2019-02-25T16:39:42.012Z,13.72
2019-02-25T16:42:11.545Z,10.93
2019-02-25T16:44:41.043Z,11.88
2019-02-25T16:47:11.789Z,13.80
2019-02-25T16:49:41.540Z,12.90
2019-02-25T16:52:11.131Z,8.33
2019-02-25T16:54:40.548Z,13.32
2019-02-25T16:57:09.984Z,8.28
2019-02-25T16:59:39.971Z,10.65
2019-02-25T17:02:13.718Z,9.80
2019-02-25T17:04:40.719Z,8.78
2019-02-25T17:07:14.387Z,9.43
2019-02-25T17:09:44.891Z,12.50
2019-02-25T17:12:14.254Z,9.03
2019-02-25T17:14:43.893Z,12.73
2019-02-25T17:17:13.202Z,11.28
2019-02-25T17:19:42.761Z,15.00
2019-02-25T17:22:12.241Z,14.23
2019-02-25T17:24:41.877Z,8.83
2019-02-25T17:27:12.372Z,10.90
2019-02-25T17:29:42.991Z,7.27
2019-02-25T17:32:14.456Z,10.00
2019-02-25T17:34:44.140Z,7.53
2019-02-25T17:37:14.833Z,8.13
2019-02-25T17:39:44.817Z,8.37
2019-02-25T17:42:14.643Z,12.13
2019-02-25T17:44:44.356Z,12.87
2019-02-25T17:47:23.646Z,11.70
2019-02-25T17:49:44.760Z,26.83
2019-02-25T17:52:15.853Z,33.53
2019-02-25T17:54:45.432Z,24.73
2019-02-25T17:57:15.792Z,23.50
2019-02-25T17:59:46.390Z,45.33
2019-02-25T18:02:16.426Z,46.93
2019-02-25T18:04:47.049Z,54.23
2019-02-25T18:07:17.223Z,22.37
2019-02-25T18:09:47.039Z,21.37
2019-02-25T18:12:18.893Z,15.23
2019-02-25T18:14:48.037Z,6.53
2019-02-25T18:17:19.318Z,36.57
2019-02-25T18:19:50.161Z,37.47
2019-02-25T18:22:19.571Z,38.63
2019-02-25T18:24:49.160Z,19.93
2019-02-25T18:27:18.955Z,12.60
2019-02-25T18:29:50.026Z,17.67
2019-02-25T18:32:19.522Z,35.73
2019-02-25T18:34:50.039Z,25.27
2019-02-25T18:37:20.001Z,54.03
2019-02-25T18:39:50.061Z,48.03
2019-02-25T18:42:20.574Z,39.57
2019-02-25T18:44:51.328Z,51.00
2019-02-25T18:47:23.002Z,58.57
2019-02-25T18:49:53.939Z,59.63
2019-02-25T18:52:23.757Z,53.40
2019-02-25T18:54:53.100Z,27.27
2019-02-25T18:57:23.128Z,27.00
2019-02-25T18:59:54.789Z,33.37
2019-02-25T19:02:24.661Z,145.60
2019-02-25T19:04:54.066Z,116.17
2019-02-25T19:07:25.110Z,54.07
2019-02-25T19:09:56.072Z,97.93
2019-02-25T19:12:25.771Z,90.33
2019-02-25T19:14:57.275Z,46.57
2019-02-25T19:17:27.523Z,79.13
2019-02-25T19:19:57.855Z,73.10
2019-02-25T19:22:29.758Z,80.40
2019-02-25T19:24:59.229Z,37.23
2019-02-25T19:27:29.559Z,39.20
2019-02-25T19:30:02.775Z,38.93
2019-02-25T19:32:31.472Z,55.40
2019-02-25T19:35:03.981Z,18.73
2019-02-25T19:37:33.931Z,14.43
2019-02-25T19:40:07.279Z,14.00
2019-02-25T19:42:34.776Z,9.57
2019-02-25T19:45:06.353Z,19.40
2019-02-25T19:47:35.988Z,24.30
2019-02-25T19:50:09.831Z,25.97
2019-02-25T19:52:41.462Z,44.90
2019-02-25T19:55:12.858Z,15.13
2019-02-25T19:57:42.613Z,8.57
2019-02-25T20:00:14.887Z,10.43
2019-02-25T20:02:47.901Z,27.67
2019-02-25T20:05:19.132Z,37.87
2019-02-25T20:07:47.919Z,41.07
2019-02-25T20:10:17.377Z,25.30
2019-02-25T20:12:50.055Z,17.07
2019-02-25T20:15:20.849Z,21.57
2019-02-25T20:17:51.287Z,26.83
2019-02-25T20:20:21.789Z,37.77
2019-02-25T20:22:51.039Z,95.53
2019-02-25T20:25:21.790Z,43.70
2019-02-25T20:27:52.749Z,33.77
2019-02-25T20:30:23.707Z,41.87
2019-02-25T20:32:54.295Z,34.87
2019-02-25T20:35:24.634Z,58.10
2019-02-25T20:37:55.696Z,29.20
2019-02-25T20:40:28.230Z,19.37
2019-02-25T20:42:58.738Z,16.67
2019-02-25T20:45:30.349Z,28.87
2019-02-25T20:48:00.167Z,19.70
2019-02-25T20:50:31.206Z,12.97
2019-02-25T20:53:04.925Z,23.73
2019-02-25T20:55:32.220Z,72.50
2019-02-25T20:58:02.612Z,72.77
2019-02-25T21:00:34.838Z,31.10
2019-02-25T21:03:03.331Z,27.10
2019-02-25T21:05:33.319Z,36.40
2019-02-25T21:08:02.694Z,36.43
2019-02-25T21:10:35.037Z,60.77
2019-02-25T21:13:03.431Z,22.17
2019-02-25T21:15:34.034Z,16.30
2019-02-25T21:18:07.265Z,31.07
2019-02-25T21:20:35.239Z,39.97
2019-02-25T21:23:05.959Z,76.40
2019-02-25T21:25:36.761Z,27.27
2019-02-25T21:28:08.969Z,18.13
2019-02-25T21:30:41.188Z,59.53
2019-02-25T21:33:13.150Z,46.73
2019-02-25T21:35:41.896Z,18.80
2019-02-25T21:38:11.404Z,13.67
2019-02-25T21:40:40.798Z,22.30
2019-02-25T21:43:14.449Z,12.23
2019-02-25T21:45:41.762Z,13.53
2019-02-25T21:48:11.179Z,12.77
2019-02-25T21:50:42.611Z,11.47
2019-02-25T21:53:13.947Z,10.20
2019-02-25T21:55:43.179Z,22.70
2019-02-25T21:58:12.640Z,39.63
2019-02-25T22:00:42.203Z,37.53
2019-02-25T22:03:14.604Z,24.83
2019-02-25T22:05:43.430Z,19.87
2019-02-25T22:08:13.611Z,14.43
2019-02-25T22:10:44.081Z,14.03
2019-02-25T22:13:18.210Z,15.13
2019-02-25T22:15:47.543Z,14.97
2019-02-25T22:18:17.032Z,11.50
2019-02-25T22:20:47.653Z,15.83
2019-02-25T22:23:17.350Z,16.70
2019-02-25T22:25:46.784Z,17.17
2019-02-25T22:28:16.577Z,12.63
2019-02-25T22:30:47.556Z,14.20
2019-02-25T22:33:26.824Z,12.20
2019-02-25T22:35:51.220Z,11.13
2019-02-25T22:38:20.111Z,11.60
2019-02-25T22:40:51.149Z,18.10
2019-02-25T22:43:20.868Z,21.70
2019-02-25T22:45:50.258Z,24.17
2019-02-25T22:48:21.542Z,18.20
2019-02-25T22:50:53.227Z,13.40
2019-02-25T22:53:22.857Z,12.60
2019-02-25T22:55:54.364Z,11.60
2019-02-25T22:58:23.370Z,10.83
2019-02-25T23:00:58.511Z,13.10
2019-02-25T23:03:27.767Z,11.57
2019-02-25T23:05:57.285Z,12.33
2019-02-25T23:08:26.681Z,13.10
2019-02-25T23:10:56.310Z,14.33
2019-02-25T23:13:27.494Z,11.33
2019-02-25T23:15:57.566Z,9.73
2019-02-25T23:18:28.056Z,11.30
2019-02-25T23:21:00.423Z,9.40
2019-02-25T23:23:32.889Z,9.20
2019-02-25T23:26:02.598Z,11.90
2019-02-25T23:28:31.969Z,10.70
2019-02-25T23:31:09.351Z,10.57
2019-02-25T23:34:20.892Z,10.00
2019-02-25T23:36:52.355Z,9.97
2019-02-25T23:39:26.186Z,11.97
2019-02-25T23:41:55.648Z,10.90
2019-02-25T23:44:24.930Z,11.57
2019-02-25T23:46:57.666Z,10.73
2019-02-25T23:49:27.531Z,23.87
2019-02-25T23:51:56.750Z,19.40
2019-02-25T23:54:27.999Z,9.90
2019-02-25T23:56:59.635Z,10.30
2019-02-25T23:59:29.323Z,13.10
